Time;durP1;ratioP1;P1;durP2;ratioP2;P2;SDS_P1;SDS_P2;PMS_P1;PMS_P2;Temp;Humidity;BMP_temperature;BMP_pressure;BME280_temperature;BME280_humidity;BME280_pressure;Samples;Min_cycle;Max_cycle;Signal;HPM_P1;HPM_P2
2024/01/16 00:01:43;;;;;;;2.20;2.00;;;3.40;80.70;;;;;;964151;146;27278;-85
2024/01/16 00:04:10;;;;;;;2.23;2.10;;;3.40;80.90;;;;;;963750;148;27344;-84
2024/01/16 00:06:42;;;;;;;2.63;2.33;;;3.40;81.20;;;;;;964373;148;27344;-85
2024/01/16 00:09:12;;;;;;;5.63;2.33;;;3.40;81.50;;;;;;964003;148;27420;-85
2024/01/16 00:11:35;;;;;;;3.07;2.37;;;3.40;81.80;;;;;;963218;148;27314;-83
2024/01/16 00:14:02;;;;;;;2.77;2.10;;;3.40;82.00;;;;;;961051;148;27340;-83
2024/01/16 00:16:29;;;;;;;3.17;2.30;;;3.40;82.00;;;;;;964307;145;27426;-83
2024/01/16 00:18:55;;;;;;;2.80;2.50;;;3.40;82.10;;;;;;963394;147;27346;-83
2024/01/16 00:21:22;;;;;;;3.80;2.87;;;3.40;82.10;;;;;;963779;148;27274;-83
2024/01/16 00:23:48;;;;;;;3.00;2.27;;;3.40;82.20;;;;;;964283;148;27240;-83
2024/01/16 00:26:23;;;;;;;3.97;2.30;;;3.40;82.10;;;;;;963792;148;27364;-82
2024/01/16 00:28:50;;;;;;;5.20;2.53;;;3.40;82.00;;;;;;963914;145;27314;-82
2024/01/16 00:31:17;;;;;;;3.50;2.60;;;3.40;81.90;;;;;;963547;148;27776;-83
2024/01/16 00:33:43;;;;;;;4.20;2.40;;;3.40;82.60;;;;;;964190;148;27463;-83
2024/01/16 00:36:10;;;;;;;2.97;2.50;;;3.40;82.10;;;;;;964164;146;27340;-82
2024/01/16 00:38:36;;;;;;;3.13;2.70;;;3.30;82.10;;;;;;958129;148;28428;-83
2024/01/16 00:41:03;;;;;;;3.33;2.80;;;3.30;82.10;;;;;;957820;146;27320;-83
2024/01/16 00:43:30;;;;;;;3.27;2.80;;;3.30;82.80;;;;;;957675;149;27892;-84
2024/01/16 00:45:56;;;;;;;4.27;2.47;;;3.30;82.10;;;;;;958032;148;27437;-83
2024/01/16 00:48:23;;;;;;;3.53;2.33;;;3.30;82.10;;;;;;957899;149;27415;-83
2024/01/16 00:50:49;;;;;;;3.67;2.43;;;3.30;82.60;;;;;;957669;149;27334;-82
2024/01/16 00:53:19;;;;;;;3.03;2.53;;;3.30;82.90;;;;;;958041;148;27303;-83
2024/01/16 00:55:45;;;;;;;5.27;2.60;;;3.30;83.20;;;;;;957929;148;27887;-82
2024/01/16 00:58:12;;;;;;;3.97;2.30;;;3.30;83.40;;;;;;957811;149;27323;-82
2024/01/16 01:00:38;;;;;;;2.93;2.30;;;3.40;83.60;;;;;;957576;149;27271;-83
2024/01/16 01:03:05;;;;;;;4.10;2.60;;;3.40;83.70;;;;;;957825;149;27317;-82
2024/01/16 01:05:31;;;;;;;2.93;2.70;;;3.50;83.90;;;;;;957564;149;27448;-82
2024/01/16 01:07:58;;;;;;;2.30;2.10;;;3.50;83.70;;;;;;957446;147;27331;-83
2024/01/16 01:10:25;;;;;;;2.97;2.30;;;3.60;83.50;;;;;;957417;149;27436;-83
2024/01/16 01:12:54;;;;;;;6.20;2.90;;;3.60;83.10;;;;;;957860;149;27291;-82
2024/01/16 01:15:21;;;;;;;5.47;2.97;;;3.70;82.90;;;;;;957792;146;27329;-84
2024/01/16 01:17:50;;;;;;;4.60;2.43;;;3.60;82.50;;;;;;957537;147;27803;-84
2024/01/16 01:20:16;;;;;;;2.93;2.63;;;3.60;82.30;;;;;;937802;152;27326;-83
2024/01/16 01:22:44;;;;;;;2.77;2.50;;;3.50;82.10;;;;;;933728;152;27303;-85
2024/01/16 01:25:10;;;;;;;3.37;2.50;;;3.50;82.00;;;;;;933522;152;27390;-85
2024/01/16 01:27:36;;;;;;;4.50;2.60;;;3.40;81.80;;;;;;933733;151;27353;-85
2024/01/16 01:30:03;;;;;;;3.03;2.67;;;3.40;81.80;;;;;;933336;151;27294;-85
2024/01/16 01:32:29;;;;;;;4.47;2.60;;;3.30;81.90;;;;;;933477;151;27275;-83
2024/01/16 01:34:56;;;;;;;4.43;2.53;;;3.20;81.90;;;;;;923011;152;27383;-82
2024/01/16 01:37:22;;;;;;;5.43;2.47;;;3.20;82.10;;;;;;921010;152;27999;-85
2024/01/16 01:39:49;;;;;;;3.23;2.80;;;3.10;81.90;;;;;;924899;152;27335;-85
2024/01/16 01:42:16;;;;;;;4.47;3.37;;;3.00;81.90;;;;;;925191;152;27401;-85
2024/01/16 01:44:42;;;;;;;6.60;2.83;;;3.00;82.10;;;;;;925405;152;27398;-83
2024/01/16 01:47:09;;;;;;;2.77;2.37;;;2.90;82.20;;;;;;924682;152;27479;-84
2024/01/16 01:49:35;;;;;;;5.73;2.77;;;2.80;82.20;;;;;;924566;152;27402;-84
2024/01/16 01:52:02;;;;;;;3.10;2.63;;;2.80;82.40;;;;;;925062;152;27448;-85
2024/01/16 01:54:29;;;;;;;5.43;3.37;;;2.70;82.50;;;;;;924835;152;27433;-84
2024/01/16 01:56:55;;;;;;;4.07;2.87;;;2.70;82.70;;;;;;925409;152;27383;-84
2024/01/16 01:59:22;;;;;;;3.97;2.77;;;2.70;83.00;;;;;;924848;152;28002;-85
2024/01/16 02:01:48;;;;;;;4.70;2.90;;;2.60;83.10;;;;;;924717;152;27496;-84
2024/01/16 02:04:15;;;;;;;3.33;2.70;;;2.60;83.20;;;;;;924699;152;27343;-84
2024/01/16 02:06:42;;;;;;;2.83;2.63;;;2.60;83.50;;;;;;924970;152;27485;-83
2024/01/16 02:09:08;;;;;;;5.43;2.93;;;2.60;83.50;;;;;;924662;152;27418;-85
2024/01/16 02:11:35;;;;;;;2.63;2.43;;;2.50;83.50;;;;;;925023;152;27757;-85
2024/01/16 02:14:02;;;;;;;3.43;3.13;;;2.50;83.60;;;;;;925029;152;27362;-84
2024/01/16 02:16:28;;;;;;;4.83;2.80;;;2.40;83.80;;;;;;924722;152;27346;-84
2024/01/16 02:18:55;;;;;;;3.33;3.03;;;2.50;84.10;;;;;;924375;152;27471;-84
2024/01/16 02:21:21;;;;;;;3.50;3.00;;;2.40;84.20;;;;;;925096;152;27396;-84
2024/01/16 02:23:48;;;;;;;5.23;3.47;;;2.50;84.60;;;;;;924730;152;27379;-85
2024/01/16 02:26:20;;;;;;;3.73;2.87;;;2.50;84.70;;;;;;924441;152;27431;-85
2024/01/16 02:28:47;;;;;;;3.83;3.00;;;2.50;84.90;;;;;;925362;152;28034;-85
2024/01/16 02:31:13;;;;;;;4.83;3.37;;;2.50;85.00;;;;;;925023;152;27350;-85
2024/01/16 02:33:40;;;;;;;4.53;3.13;;;2.50;85.10;;;;;;924842;152;27344;-85
2024/01/16 02:36:06;;;;;;;5.60;2.87;;;2.60;85.00;;;;;;924856;152;27404;-85
2024/01/16 02:38:33;;;;;;;7.17;3.37;;;2.60;84.90;;;;;;925052;152;27419;-84
2024/01/16 02:41:00;;;;;;;4.97;3.30;;;2.60;85.00;;;;;;925017;152;27417;-84
2024/01/16 02:43:26;;;;;;;3.67;3.27;;;2.60;85.00;;;;;;924366;152;27451;-85
2024/01/16 02:45:53;;;;;;;3.17;2.93;;;2.60;85.20;;;;;;924750;152;27302;-84
2024/01/16 02:48:19;;;;;;;5.03;3.53;;;2.70;85.30;;;;;;924897;152;27372;-83
2024/01/16 02:50:46;;;;;;;3.10;2.90;;;2.70;85.40;;;;;;924962;152;27403;-85
2024/01/16 02:53:12;;;;;;;3.53;3.13;;;2.80;85.50;;;;;;925217;152;27429;-84
2024/01/16 02:55:39;;;;;;;3.50;3.17;;;2.80;85.50;;;;;;925123;152;27358;-84
2024/01/16 02:58:05;;;;;;;4.70;2.87;;;2.90;86.50;;;;;;925040;152;27344;-83
2024/01/16 03:00:32;;;;;;;4.43;3.17;;;2.90;85.70;;;;;;924839;152;27469;-84
2024/01/16 03:02:59;;;;;;;3.50;2.87;;;2.90;85.70;;;;;;925076;152;27697;-85
2024/01/16 03:05:25;;;;;;;4.97;3.13;;;3.00;85.70;;;;;;924889;152;27332;-84
2024/01/16 03:07:52;;;;;;;4.97;3.70;;;3.00;85.70;;;;;;925138;152;27440;-84
2024/01/16 03:10:18;;;;;;;3.63;3.17;;;3.10;85.70;;;;;;924720;152;27441;-85
2024/01/16 03:12:45;;;;;;;4.57;3.10;;;3.10;85.70;;;;;;962850;149;27286;-84
2024/01/16 03:15:12;;;;;;;6.10;3.37;;;3.20;85.70;;;;;;962600;146;27270;-85
2024/01/16 03:17:38;;;;;;;4.87;3.63;;;3.20;85.60;;;;;;962261;147;27247;-84
2024/01/16 03:20:05;;;;;;;3.67;3.20;;;3.30;85.50;;;;;;962663;149;27364;-83
2024/01/16 03:22:31;;;;;;;7.07;3.23;;;3.30;85.40;;;;;;962939;149;27502;-85
2024/01/16 03:24:58;;;;;;;5.27;3.37;;;3.40;85.40;;;;;;962684;148;27274;-85
2024/01/16 03:27:24;;;;;;;4.57;3.47;;;3.40;85.20;;;;;;962556;148;27239;-85
2024/01/16 03:29:51;;;;;;;5.30;3.40;;;3.40;85.00;;;;;;962192;149;27316;-84
2024/01/16 03:32:18;;;;;;;3.27;3.03;;;3.40;84.80;;;;;;962693;147;27344;-85
2024/01/16 03:34:44;;;;;;;3.83;3.13;;;3.40;84.70;;;;;;962657;146;27251;-85
2024/01/16 03:37:11;;;;;;;4.57;3.50;;;3.50;84.50;;;;;;962717;147;27396;-85
2024/01/16 03:39:37;;;;;;;3.83;3.50;;;3.50;84.30;;;;;;963883;148;27338;-85
2024/01/16 03:42:04;;;;;;;4.20;3.07;;;3.50;84.10;;;;;;964477;148;27357;-83
2024/01/16 03:44:31;;;;;;;5.23;2.93;;;3.40;83.90;;;;;;964032;147;27419;-85
2024/01/16 03:46:57;;;;;;;3.97;3.57;;;3.40;83.90;;;;;;964223;148;27356;-85
2024/01/16 03:49:25;;;;;;;3.67;3.33;;;3.40;83.70;;;;;;964248;148;27265;-84
2024/01/16 03:51:50;;;;;;;4.00;3.30;;;3.40;83.70;;;;;;964171;148;27290;-84
2024/01/16 03:54:17;;;;;;;3.73;3.40;;;3.30;83.60;;;;;;964370;148;27340;-85
2024/01/16 03:56:43;;;;;;;4.93;3.43;;;3.30;83.50;;;;;;964229;148;27360;-85
2024/01/16 03:59:10;;;;;;;5.23;3.67;;;3.20;83.50;;;;;;963707;148;27266;-85
2024/01/16 04:01:37;;;;;;;3.40;3.10;;;3.20;83.30;;;;;;964336;148;27282;-84
2024/01/16 04:04:06;;;;;;;6.17;3.37;;;3.10;83.30;;;;;;964496;147;27374;-85
2024/01/16 04:06:32;;;;;;;4.17;3.10;;;3.10;83.40;;;;;;963929;147;27322;-85
2024/01/16 04:08:56;;;;;;;6.10;3.57;;;3.00;83.40;;;;;;963563;148;27393;-85
2024/01/16 04:11:23;;;;;;;5.00;3.23;;;3.00;83.50;;;;;;964150;148;27302;-86
2024/01/16 04:13:50;;;;;;;4.17;3.63;;;2.90;83.50;;;;;;964617;148;27348;-86
2024/01/16 04:16:16;;;;;;;4.43;3.23;;;2.90;83.60;;;;;;964527;148;27444;-86
2024/01/16 04:18:43;;;;;;;3.90;3.50;;;2.80;83.50;;;;;;964308;147;27352;-85
2024/01/16 04:21:09;;;;;;;4.10;3.63;;;2.80;83.60;;;;;;963735;148;27409;-84
2024/01/16 04:23:36;;;;;;;4.43;3.47;;;2.80;83.70;;;;;;964235;148;27407;-84
2024/01/16 04:26:03;;;;;;;3.67;3.37;;;2.70;83.70;;;;;;964471;146;27430;-86
2024/01/16 04:28:29;;;;;;;4.07;3.33;;;2.70;83.90;;;;;;964494;148;27282;-85
2024/01/16 04:30:56;;;;;;;5.07;3.60;;;2.70;83.90;;;;;;964513;148;27351;-85
2024/01/16 04:33:22;;;;;;;5.27;3.37;;;2.60;84.10;;;;;;964883;146;27355;-84
2024/01/16 04:35:49;;;;;;;6.30;3.97;;;2.60;84.20;;;;;;964653;148;27340;-85
2024/01/16 04:38:15;;;;;;;6.97;3.90;;;2.60;84.20;;;;;;964517;146;27333;-85
2024/01/16 04:40:42;;;;;;;3.77;3.30;;;2.50;84.20;;;;;;959122;148;27311;-85
2024/01/16 04:43:09;;;;;;;5.33;3.97;;;2.60;84.40;;;;;;958473;148;27364;-86
2024/01/16 04:45:35;;;;;;;4.53;3.57;;;2.50;84.50;;;;;;958240;149;27283;-84
2024/01/16 04:48:02;;;;;;;4.43;3.57;;;2.50;84.60;;;;;;958302;148;27330;-85
2024/01/16 04:50:31;;;;;;;4.50;3.87;;;2.50;84.70;;;;;;957954;148;27331;-86
2024/01/16 04:52:55;;;;;;;4.20;3.47;;;2.50;84.80;;;;;;957798;149;27267;-83
2024/01/16 04:55:22;;;;;;;4.37;3.97;;;2.50;84.90;;;;;;957799;149;27365;-82
2024/01/16 04:57:48;;;;;;;4.50;4.10;;;2.50;85.10;;;;;;957933;148;27428;-82
2024/01/16 05:00:15;;;;;;;6.23;3.80;;;2.50;85.20;;;;;;957780;148;27309;-83
2024/01/16 05:02:41;;;;;;;7.03;3.87;;;2.50;85.20;;;;;;957727;149;27366;-84
2024/01/16 05:05:08;;;;;;;7.03;4.07;;;2.50;85.30;;;;;;957621;148;27275;-83
2024/01/16 05:07:35;;;;;;;5.30;4.17;;;2.50;85.40;;;;;;957789;148;27332;-84
2024/01/16 05:10:01;;;;;;;4.97;3.60;;;2.50;85.40;;;;;;957739;147;27374;-83
2024/01/16 05:12:28;;;;;;;4.50;3.73;;;2.50;85.30;;;;;;957813;149;27905;-83
2024/01/16 05:14:54;;;;;;;5.93;3.63;;;2.50;85.30;;;;;;957762;149;27292;-83
2024/01/16 05:17:21;;;;;;;5.87;4.07;;;2.50;85.40;;;;;;957342;146;27348;-84
2024/01/16 05:19:47;;;;;;;4.73;4.03;;;2.50;85.50;;;;;;957922;149;27439;-83
2024/01/16 05:22:14;;;;;;;7.63;4.10;;;2.50;85.50;;;;;;957786;148;27372;-82
2024/01/16 05:24:41;;;;;;;5.30;4.03;;;2.50;85.50;;;;;;957984;146;27360;-82
2024/01/16 05:27:09;;;;;;;8.00;4.37;;;2.50;85.60;;;;;;957400;148;27298;-83
2024/01/16 05:29:34;;;;;;;4.57;3.57;;;2.50;85.50;;;;;;957915;149;27689;-83
2024/01/16 05:32:00;;;;;;;6.10;4.03;;;2.50;85.50;;;;;;958232;147;27283;-82
2024/01/16 05:34:28;;;;;;;4.43;3.60;;;2.50;85.50;;;;;;957463;148;27307;-84
2024/01/16 05:36:54;;;;;;;4.60;4.20;;;2.40;85.50;;;;;;957327;149;27344;-83
2024/01/16 05:39:21;;;;;;;6.57;3.70;;;2.40;85.70;;;;;;957946;148;27353;-84
2024/01/16 05:41:47;;;;;;;4.03;3.33;;;2.40;85.50;;;;;;963141;148;27476;-84
2024/01/16 05:44:13;;;;;;;5.43;4.27;;;2.40;85.50;;;;;;963783;145;27343;-86
2024/01/16 05:46:40;;;;;;;5.70;3.90;;;2.40;85.60;;;;;;963823;148;27242;-85
2024/01/16 05:49:06;;;;;;;5.70;3.93;;;2.40;85.70;;;;;;964502;148;27395;-86
2024/01/16 05:51:33;;;;;;;4.83;3.80;;;2.30;85.80;;;;;;964417;147;27337;-85
2024/01/16 05:54:00;;;;;;;5.27;3.70;;;2.30;85.80;;;;;;963729;148;27401;-86
2024/01/16 05:56:26;;;;;;;4.83;3.40;;;2.30;86.00;;;;;;964567;148;27282;-85
2024/01/16 05:58:53;;;;;;;3.90;3.57;;;2.40;86.60;;;;;;964361;148;27379;-85
2024/01/16 06:01:19;;;;;;;4.80;3.67;;;2.30;86.10;;;;;;964409;148;27347;-85
2024/01/16 06:03:48;;;;;;;4.33;3.70;;;2.30;86.20;;;;;;964310;145;27347;-84
2024/01/16 06:06:12;;;;;;;6.10;3.53;;;2.30;86.10;;;;;;963860;148;27294;-85
2024/01/16 06:08:39;;;;;;;6.43;3.60;;;2.30;86.40;;;;;;964680;146;27330;-85
2024/01/16 06:11:06;;;;;;;3.60;3.30;;;2.30;86.30;;;;;;964751;148;27345;-85
2024/01/16 06:13:32;;;;;;;5.13;3.93;;;2.30;86.30;;;;;;964094;148;27625;-85
2024/01/16 06:15:59;;;;;;;3.87;3.57;;;2.30;86.30;;;;;;964371;148;27378;-84
2024/01/16 06:18:25;;;;;;;4.77;4.27;;;2.30;86.30;;;;;;964616;148;27278;-85
2024/01/16 06:20:52;;;;;;;4.87;3.93;;;2.30;86.40;;;;;;964301;148;27391;-84
2024/01/16 06:23:19;;;;;;;4.60;3.60;;;2.30;86.30;;;;;;964714;148;27357;-85
2024/01/16 06:25:45;;;;;;;5.27;4.30;;;2.20;87.20;;;;;;964328;147;27417;-85
2024/01/16 06:28:12;;;;;;;5.60;4.23;;;2.20;86.30;;;;;;964235;148;27319;-84
2024/01/16 06:30:38;;;;;;;6.83;4.30;;;2.20;86.30;;;;;;964761;146;27308;-84
2024/01/16 06:33:05;;;;;;;4.90;3.60;;;2.20;86.40;;;;;;964312;148;27426;-85
2024/01/16 06:35:31;;;;;;;7.70;4.20;;;2.20;86.40;;;;;;964371;148;27302;-85
2024/01/16 06:37:58;;;;;;;7.13;4.43;;;2.20;86.40;;;;;;964258;147;27374;-85
2024/01/16 06:40:25;;;;;;;5.10;3.93;;;2.20;86.40;;;;;;964413;147;27691;-85
2024/01/16 06:42:51;;;;;;;5.77;4.40;;;2.10;86.40;;;;;;957230;148;27428;-84
2024/01/16 06:45:19;;;;;;;6.77;4.20;;;2.10;86.40;;;;;;957154;148;27326;-85
2024/01/16 06:47:44;;;;;;;7.20;4.00;;;2.10;86.40;;;;;;956693;147;27280;-85
2024/01/16 06:50:11;;;;;;;4.73;3.77;;;2.10;86.60;;;;;;956653;149;27263;-84
2024/01/16 06:52:38;;;;;;;6.83;3.70;;;2.10;86.60;;;;;;957397;149;27372;-86
2024/01/16 06:55:04;;;;;;;4.87;3.20;;;2.10;86.60;;;;;;957129;149;27427;-86
2024/01/16 06:57:31;;;;;;;4.90;3.73;;;2.10;86.60;;;;;;956429;148;27303;-85
2024/01/16 06:59:57;;;;;;;5.17;3.70;;;2.00;86.40;;;;;;956603;149;27404;-85
2024/01/16 07:02:24;;;;;;;7.23;3.90;;;2.00;86.30;;;;;;956127;148;27315;-86
2024/01/16 07:04:50;;;;;;;8.00;3.67;;;2.00;86.30;;;;;;956735;148;27354;-85
2024/01/16 07:07:17;;;;;;;5.17;4.50;;;1.90;86.30;;;;;;956346;148;27326;-85
2024/01/16 07:09:44;;;;;;;5.43;3.63;;;1.90;86.40;;;;;;956977;149;27316;-85
2024/01/16 07:12:10;;;;;;;6.53;4.30;;;1.80;86.30;;;;;;956994;149;27256;-86
2024/01/16 07:14:38;;;;;;;5.20;4.10;;;1.80;86.40;;;;;;957229;149;27339;-86
2024/01/16 07:17:04;;;;;;;3.97;3.37;;;1.80;86.50;;;;;;956252;149;27326;-85
2024/01/16 07:19:30;;;;;;;4.83;4.07;;;1.80;86.80;;;;;;956409;149;27357;-86
2024/01/16 07:21:57;;;;;;;4.57;3.83;;;1.70;86.70;;;;;;957005;149;27279;-85
2024/01/16 07:24:23;;;;;;;5.80;3.73;;;1.70;86.80;;;;;;956940;149;27636;-85
2024/01/16 07:26:50;;;;;;;5.50;3.80;;;1.70;87.00;;;;;;956816;149;27343;-83
2024/01/16 07:29:16;;;;;;;4.17;3.80;;;1.60;87.00;;;;;;957473;147;28358;-84
2024/01/16 07:31:43;;;;;;;7.20;3.83;;;1.60;87.10;;;;;;957176;149;27255;-84
2024/01/16 07:34:09;;;;;;;6.50;4.47;;;1.60;87.40;;;;;;956977;149;27384;-84
2024/01/16 07:36:36;;;;;;;4.33;3.90;;;1.60;87.70;;;;;;956652;149;27412;-84
2024/01/16 07:39:03;;;;;;;3.73;3.37;;;1.60;87.70;;;;;;956954;148;27438;-81
2024/01/16 07:41:29;;;;;;;4.67;3.50;;;1.60;87.90;;;;;;956779;148;27448;-82
2024/01/16 07:43:56;;;;;;;7.83;3.90;;;1.60;87.90;;;;;;956306;148;27380;-82
2024/01/16 07:46:22;;;;;;;4.07;3.37;;;1.60;88.10;;;;;;956593;148;27279;-82
2024/01/16 07:48:49;;;;;;;4.57;3.70;;;1.60;88.20;;;;;;956727;149;27423;-81
2024/01/16 07:51:16;;;;;;;4.80;3.83;;;1.60;88.30;;;;;;956295;149;27359;-82
2024/01/16 07:53:42;;;;;;;4.83;3.87;;;1.60;88.50;;;;;;956403;149;27275;-81
2024/01/16 07:56:09;;;;;;;5.90;3.97;;;1.70;88.70;;;;;;957045;149;27442;-81
2024/01/16 07:58:36;;;;;;;5.23;3.53;;;1.70;88.90;;;;;;956820;149;27442;-81
2024/01/16 08:01:02;;;;;;;4.40;3.47;;;1.70;89.10;;;;;;956985;149;27423;-81
2024/01/16 08:03:28;;;;;;;7.40;3.83;;;1.70;89.20;;;;;;956467;149;27375;-81
2024/01/16 08:05:55;;;;;;;5.67;3.87;;;1.80;88.60;;;;;;956778;149;27408;-81
2024/01/16 08:08:22;;;;;;;4.73;3.97;;;1.80;89.50;;;;;;956945;149;27483;-81
2024/01/16 08:10:48;;;;;;;5.63;4.23;;;1.90;89.70;;;;;;956876;149;27322;-81
2024/01/16 08:13:15;;;;;;;7.37;4.13;;;1.90;89.70;;;;;;956423;149;27271;-81
2024/01/16 08:15:41;;;;;;;4.50;4.10;;;2.00;89.70;;;;;;957172;149;27363;-82
2024/01/16 08:18:08;;;;;;;9.20;4.20;;;2.10;89.90;;;;;;956733;148;27279;-82
2024/01/16 08:20:35;;;;;;;7.73;4.47;;;2.20;90.00;;;;;;956583;149;27358;-81
2024/01/16 08:23:02;;;;;;;6.57;4.63;;;2.20;90.00;;;;;;956837;147;27354;-81
2024/01/16 08:25:28;;;;;;;5.17;3.57;;;2.30;90.00;;;;;;956712;149;27399;-81
2024/01/16 08:27:54;;;;;;;6.17;3.87;;;2.40;89.90;;;;;;957080;149;27372;-81
2024/01/16 08:30:21;;;;;;;6.97;3.93;;;2.50;89.70;;;;;;956940;149;27333;-83
2024/01/16 08:32:47;;;;;;;5.87;4.07;;;2.50;89.40;;;;;;956771;148;28359;-83
2024/01/16 08:35:14;;;;;;;5.60;3.93;;;2.60;89.20;;;;;;956689;149;27319;-84
2024/01/16 08:37:41;;;;;;;7.33;4.43;;;2.70;89.10;;;;;;957101;149;27356;-84
2024/01/16 08:40:07;;;;;;;4.23;3.83;;;2.80;89.00;;;;;;957104;148;27307;-84
2024/01/16 08:42:34;;;;;;;5.83;4.30;;;2.80;88.90;;;;;;956776;147;27375;-83
2024/01/16 08:45:01;;;;;;;5.40;4.30;;;2.90;88.90;;;;;;956861;149;27288;-83
2024/01/16 08:47:27;;;;;;;6.97;4.50;;;3.00;88.90;;;;;;956472;149;27244;-84
2024/01/16 08:49:54;;;;;;;5.03;4.20;;;3.00;88.80;;;;;;956852;149;27295;-82
2024/01/16 08:52:20;;;;;;;5.63;4.20;;;3.10;88.80;;;;;;956918;149;27346;-81
2024/01/16 08:54:48;;;;;;;5.23;4.43;;;3.20;88.90;;;;;;956802;148;28575;-81
2024/01/16 08:57:13;;;;;;;6.27;5.10;;;3.30;89.00;;;;;;956319;149;27269;-81
2024/01/16 08:59:40;;;;;;;6.27;4.30;;;3.40;88.90;;;;;;956484;148;27279;-82
2024/01/16 09:02:07;;;;;;;8.37;4.67;;;3.50;88.80;;;;;;955706;147;27420;-81
2024/01/16 09:04:34;;;;;;;6.63;4.73;;;3.60;88.70;;;;;;956848;149;27327;-82
2024/01/16 09:07:00;;;;;;;4.87;4.40;;;3.70;88.60;;;;;;956511;149;27364;-81
2024/01/16 09:09:26;;;;;;;6.27;4.27;;;3.80;88.40;;;;;;956894;149;27351;-82
2024/01/16 09:11:53;;;;;;;6.27;5.17;;;3.90;88.20;;;;;;957155;148;27354;-83
2024/01/16 09:14:20;;;;;;;6.10;4.57;;;4.00;87.80;;;;;;956757;149;27435;-81
2024/01/16 09:16:46;;;;;;;5.77;4.33;;;4.10;87.50;;;;;;956945;149;27352;-81
2024/01/16 09:19:13;;;;;;;6.80;4.90;;;4.20;87.20;;;;;;956325;149;27334;-81
2024/01/16 09:21:39;;;;;;;6.20;4.37;;;4.20;86.80;;;;;;956944;149;27409;-83
2024/01/16 09:24:06;;;;;;;5.83;4.20;;;4.30;86.60;;;;;;956982;149;27358;-81
2024/01/16 09:26:32;;;;;;;4.97;4.47;;;4.30;87.10;;;;;;956628;149;27431;-81
2024/01/16 09:28:59;;;;;;;4.27;3.87;;;4.40;85.90;;;;;;956495;147;27299;-82
2024/01/16 09:31:26;;;;;;;5.17;4.23;;;4.40;85.50;;;;;;955947;148;27264;-82
2024/01/16 09:33:52;;;;;;;5.70;4.33;;;4.50;85.30;;;;;;956639;148;27423;-86
2024/01/16 09:36:19;;;;;;;5.47;4.20;;;4.50;85.00;;;;;;956056;149;27436;-86
2024/01/16 09:38:45;;;;;;;4.87;3.80;;;4.50;84.70;;;;;;956777;149;27287;-87
2024/01/16 09:41:12;;;;;;;8.87;4.40;;;4.60;84.60;;;;;;957001;149;27275;-87
2024/01/16 09:43:38;;;;;;;6.03;4.07;;;4.60;84.60;;;;;;956394;148;27792;-83
2024/01/16 09:46:05;;;;;;;6.47;4.20;;;4.70;84.80;;;;;;957609;149;27419;-86
2024/01/16 09:48:32;;;;;;;9.80;5.17;;;4.70;84.60;;;;;;957061;148;27313;-87
2024/01/16 09:50:58;;;;;;;6.00;4.10;;;4.80;84.40;;;;;;957466;148;27380;-89
2024/01/16 09:53:25;;;;;;;4.83;3.50;;;4.90;84.20;;;;;;958099;149;27408;-83
2024/01/16 09:55:51;;;;;;;6.60;3.60;;;4.90;83.90;;;;;;958134;149;27345;-89
2024/01/16 09:58:18;;;;;;;4.97;3.80;;;5.00;83.80;;;;;;957306;146;27325;-89
2024/01/16 10:00:45;;;;;;;4.93;4.17;;;5.00;83.60;;;;;;957060;149;27754;-88
2024/01/16 10:03:14;;;;;;;5.87;3.73;;;5.10;83.50;;;;;;958320;148;27315;-84
2024/01/16 10:05:44;;;;;;;4.37;3.97;;;5.20;83.30;;;;;;957461;146;27358;-89
2024/01/16 10:08:10;;;;;;;7.17;4.00;;;5.20;83.00;;;;;;956544;146;27355;-86
2024/01/16 10:10:37;;;;;;;5.87;4.10;;;5.30;82.70;;;;;;957630;149;27288;-86
2024/01/16 10:13:04;;;;;;;5.80;3.87;;;5.30;82.50;;;;;;957909;148;27295;-84
2024/01/16 10:15:30;;;;;;;4.60;3.90;;;5.40;82.50;;;;;;957693;147;27436;-89
2024/01/16 10:17:57;;;;;;;8.47;3.80;;;5.40;82.60;;;;;;957191;148;27314;-88
2024/01/16 10:20:32;;;;;;;4.70;3.70;;;5.50;82.50;;;;;;956951;149;27387;-87
2024/01/16 10:22:59;;;;;;;7.63;3.83;;;5.60;82.20;;;;;;957512;148;27349;-86
2024/01/16 10:25:26;;;;;;;5.60;3.93;;;5.60;81.90;;;;;;958039;149;27346;-86
2024/01/16 10:28:05;;;;;;;4.07;3.67;;;5.70;81.70;;;;;;957443;147;27429;-80
2024/01/16 10:30:31;;;;;;;6.43;3.90;;;5.70;81.40;;;;;;957712;148;27284;-80
2024/01/16 10:32:58;;;;;;;5.30;3.67;;;5.70;81.10;;;;;;957211;149;28675;-80
2024/01/16 10:35:24;;;;;;;7.37;3.70;;;5.80;81.00;;;;;;954666;148;27275;-81
2024/01/16 10:37:51;;;;;;;7.30;3.40;;;5.80;80.40;;;;;;957551;148;27354;-81
2024/01/16 10:40:18;;;;;;;5.50;3.60;;;5.80;80.30;;;;;;957602;148;27853;-81
2024/01/16 10:42:46;;;;;;;5.37;3.50;;;5.80;80.10;;;;;;957411;148;27287;-80
2024/01/16 10:45:11;;;;;;;4.60;3.90;;;5.80;79.70;;;;;;957470;148;27790;-86
2024/01/16 10:47:37;;;;;;;5.50;3.83;;;5.70;79.70;;;;;;957720;149;27317;-85
2024/01/16 10:50:05;;;;;;;7.80;4.90;;;5.70;79.70;;;;;;957984;149;27350;-87
2024/01/16 10:52:30;;;;;;;7.17;4.07;;;5.80;79.70;;;;;;957552;148;27368;-87
2024/01/16 10:54:57;;;;;;;4.40;4.00;;;5.80;79.60;;;;;;957053;146;27240;-87
2024/01/16 10:57:23;;;;;;;4.87;3.63;;;5.80;79.60;;;;;;957941;149;27315;-85
2024/01/16 10:59:56;;;;;;;6.87;3.90;;;5.80;79.50;;;;;;957941;149;27328;-87
2024/01/16 11:02:22;;;;;;;6.57;3.97;;;5.80;79.60;;;;;;956559;148;27248;-87
2024/01/16 11:04:49;;;;;;;5.63;3.33;;;5.80;79.70;;;;;;957710;149;27385;-87
2024/01/16 11:07:15;;;;;;;7.33;4.20;;;5.90;79.60;;;;;;957590;149;27306;-84
2024/01/16 11:09:42;;;;;;;6.90;3.83;;;5.90;79.60;;;;;;958262;149;27381;-88
2024/01/16 11:12:11;;;;;;;7.23;3.53;;;5.90;79.40;;;;;;957803;148;27380;-86
2024/01/16 11:14:35;;;;;;;6.17;3.60;;;6.00;79.20;;;;;;957811;148;27312;-88
2024/01/16 11:17:02;;;;;;;4.03;3.20;;;6.00;79.00;;;;;;958018;147;27292;-84
2024/01/16 11:19:28;;;;;;;6.10;4.53;;;6.00;78.80;;;;;;957609;149;27881;-90
2024/01/16 11:21:55;;;;;;;4.70;3.53;;;6.10;78.80;;;;;;957300;149;27388;-87
2024/01/16 11:24:24;;;;;;;6.17;3.97;;;6.10;78.80;;;;;;957246;149;27367;-86
2024/01/16 11:26:48;;;;;;;5.87;3.90;;;6.20;78.50;;;;;;957557;149;27376;-86
2024/01/16 11:29:27;;;;;;;4.23;3.83;;;6.20;78.40;;;;;;958207;147;27409;-82
2024/01/16 11:31:53;;;;;;;4.37;3.37;;;6.20;78.20;;;;;;938246;151;27372;-86
2024/01/16 11:34:41;;;;;;;6.93;3.73;;;6.20;78.10;;;;;;912131;152;27948;-88
2024/01/16 11:37:08;;;;;;;4.90;3.53;;;6.20;78.20;;;;;;942909;152;27402;-87
2024/01/16 11:39:34;;;;;;;4.53;3.40;;;6.30;78.30;;;;;;957704;149;27347;-85
2024/01/16 11:42:04;;;;;;;4.37;3.37;;;6.30;78.20;;;;;;957763;148;27333;-82
2024/01/16 11:44:42;;;;;;;5.50;3.67;;;6.40;78.50;;;;;;959414;148;27389;-88
2024/01/16 11:47:09;;;;;;;3.43;3.03;;;6.50;78.50;;;;;;964017;148;27370;-86
2024/01/16 11:49:35;;;;;;;4.03;3.43;;;6.60;78.70;;;;;;963988;148;27610;-85
2024/01/16 11:52:02;;;;;;;5.00;3.20;;;6.70;78.60;;;;;;963896;148;27336;-88
2024/01/16 11:54:29;;;;;;;5.87;3.37;;;6.80;78.30;;;;;;963745;148;27463;-79
2024/01/16 11:57:01;;;;;;;7.97;3.87;;;6.90;78.10;;;;;;963371;148;27376;-80
2024/01/16 11:59:43;;;;;;;6.83;3.20;;;7.00;78.10;;;;;;962620;148;27325;-80
2024/01/16 12:02:13;;;;;;;4.77;3.37;;;7.10;78.00;;;;;;961717;148;27395;-80
2024/01/16 12:04:39;;;;;;;6.97;3.37;;;7.20;77.90;;;;;;962904;148;27341;-79
2024/01/16 12:07:07;;;;;;;4.20;3.20;;;7.30;77.60;;;;;;964330;147;27454;-81
2024/01/16 12:09:33;;;;;;;3.93;3.07;;;7.40;77.00;;;;;;963870;146;27431;-79
2024/01/16 12:12:02;;;;;;;6.73;3.77;;;7.50;76.50;;;;;;963702;148;27274;-79
2024/01/16 12:14:28;;;;;;;6.03;3.57;;;7.50;76.00;;;;;;963987;148;27361;-79
2024/01/16 12:17:13;;;;;;;8.00;3.40;;;7.60;75.70;;;;;;964067;148;27430;-80
2024/01/16 12:19:41;;;;;;;3.67;3.03;;;7.60;75.40;;;;;;963594;146;27275;-80
2024/01/16 12:22:06;;;;;;;5.23;3.73;;;7.60;75.20;;;;;;963024;148;27425;-79
2024/01/16 12:24:33;;;;;;;5.83;3.23;;;7.60;74.90;;;;;;963393;148;27293;-83
2024/01/16 12:26:59;;;;;;;5.00;3.40;;;7.50;74.50;;;;;;964324;146;27437;-79
2024/01/16 12:29:26;;;;;;;9.13;3.23;;;7.50;74.40;;;;;;963033;148;27294;-79
2024/01/16 12:31:53;;;;;;;4.63;3.57;;;7.50;74.30;;;;;;963301;148;27826;-80
2024/01/16 12:34:19;;;;;;;6.57;3.33;;;7.40;74.00;;;;;;961579;146;27314;-80
2024/01/16 12:36:46;;;;;;;3.73;2.90;;;7.40;73.90;;;;;;963763;147;27423;-79
2024/01/16 12:39:12;;;;;;;4.83;3.07;;;7.40;73.70;;;;;;963544;146;27994;-79
2024/01/16 12:41:41;;;;;;;4.00;2.90;;;7.30;72.50;;;;;;963230;148;27302;-79
2024/01/16 12:44:08;;;;;;;7.17;3.50;;;7.30;73.30;;;;;;963096;145;27480;-80
2024/01/16 12:46:35;;;;;;;5.43;2.77;;;7.20;73.20;;;;;;956556;145;27366;-80
2024/01/16 12:49:05;;;;;;;4.83;3.30;;;7.10;73.20;;;;;;956400;149;27411;-80
2024/01/16 12:51:30;;;;;;;5.23;3.03;;;7.10;73.30;;;;;;955759;149;27300;-80
2024/01/16 12:54:15;;;;;;;4.67;2.40;;;7.10;73.40;;;;;;956401;148;27435;-83
2024/01/16 12:56:42;;;;;;;4.40;2.70;;;7.10;73.40;;;;;;956442;149;27466;-80